sensor_id;sensor_type;location;lat;lon;timestamp;P1;durP1;ratioP1;P2;durP2;ratioP2
44750;SDS011;30477;48.224;11.470;2022-11-27T00:00:41;51.55;;;34.70;;
44750;SDS011;30477;48.224;11.470;2022-11-27T00:03:06;50.70;;;34.80;;
44750;SDS011;30477;48.224;11.470;2022-11-27T00:05:32;49.13;;;34.27;;
44750;SDS011;30477;48.224;11.470;2022-11-27T00:07:57;53.23;;;33.90;;
44750;SDS011;30477;48.224;11.470;2022-11-27T00:10:22;47.47;;;32.17;;
44750;SDS011;30477;48.224;11.470;2022-11-27T00:12:48;48.17;;;32.70;;
44750;SDS011;30477;48.224;11.470;2022-11-27T00:15:13;50.13;;;33.95;;
44750;SDS011;30477;48.224;11.470;2022-11-27T00:17:39;45.85;;;32.75;;
44750;SDS011;30477;48.224;11.470;2022-11-27T00:20:04;47.00;;;32.20;;
44750;SDS011;30477;48.224;11.470;2022-11-27T00:22:30;46.15;;;31.95;;
44750;SDS011;30477;48.224;11.470;2022-11-27T00:24:56;45.33;;;31.63;;
44750;SDS011;30477;48.224;11.470;2022-11-27T00:27:21;47.97;;;31.53;;
44750;SDS011;30477;48.224;11.470;2022-11-27T00:29:46;46.77;;;31.87;;
44750;SDS011;30477;48.224;11.470;2022-11-27T00:32:12;45.13;;;31.03;;
44750;SDS011;30477;48.224;11.470;2022-11-27T00:34:37;41.47;;;29.20;;
44750;SDS011;30477;48.224;11.470;2022-11-27T00:37:02;46.03;;;30.90;;
44750;SDS011;30477;48.224;11.470;2022-11-27T00:39:28;49.80;;;32.20;;
44750;SDS011;30477;48.224;11.470;2022-11-27T00:41:53;44.77;;;30.57;;
44750;SDS011;30477;48.224;11.470;2022-11-27T00:44:19;46.37;;;30.47;;
44750;SDS011;30477;48.224;11.470;2022-11-27T00:46:44;45.97;;;30.07;;
44750;SDS011;30477;48.224;11.470;2022-11-27T00:49:11;48.63;;;32.00;;
44750;SDS011;30477;48.224;11.470;2022-11-27T00:51:37;48.58;;;33.45;;
44750;SDS011;30477;48.224;11.470;2022-11-27T00:54:03;48.90;;;33.27;;
44750;SDS011;30477;48.224;11.470;2022-11-27T00:56:29;59.47;;;37.40;;
44750;SDS011;30477;48.224;11.470;2022-11-27T00:58:57;45.70;;;32.08;;
44750;SDS011;30477;48.224;11.470;2022-11-27T01:01:24;45.70;;;32.85;;
44750;SDS011;30477;48.224;11.470;2022-11-27T01:03:58;47.13;;;31.50;;
44750;SDS011;30477;48.224;11.470;2022-11-27T01:06:25;51.08;;;33.53;;
44750;SDS011;30477;48.224;11.470;2022-11-27T01:08:51;59.03;;;39.72;;
44750;SDS011;30477;48.224;11.470;2022-11-27T01:11:21;51.88;;;34.58;;
44750;SDS011;30477;48.224;11.470;2022-11-27T01:13:52;50.33;;;33.88;;
44750;SDS011;30477;48.224;11.470;2022-11-27T01:16:20;56.50;;;37.92;;
44750;SDS011;30477;48.224;11.470;2022-11-27T01:18:47;53.78;;;34.40;;
44750;SDS011;30477;48.224;11.470;2022-11-27T01:21:15;49.88;;;34.38;;
44750;SDS011;30477;48.224;11.470;2022-11-27T01:23:42;49.72;;;35.00;;
44750;SDS011;30477;48.224;11.470;2022-11-27T01:26:09;50.03;;;34.15;;
44750;SDS011;30477;48.224;11.470;2022-11-27T01:28:35;50.05;;;33.85;;
44750;SDS011;30477;48.224;11.470;2022-11-27T01:31:06;52.67;;;34.20;;
44750;SDS011;30477;48.224;11.470;2022-11-27T01:33:33;47.42;;;33.38;;
44750;SDS011;30477;48.224;11.470;2022-11-27T01:35:59;49.67;;;33.67;;
44750;SDS011;30477;48.224;11.470;2022-11-27T01:38:27;46.30;;;32.28;;
44750;SDS011;30477;48.224;11.470;2022-11-27T01:46:25;46.58;;;32.08;;
44750;SDS011;30477;48.224;11.470;2022-11-27T01:49:11;31.50;;;22.35;;
44750;SDS011;30477;48.224;11.470;2022-11-27T01:51:41;41.45;;;28.73;;
44750;SDS011;30477;48.224;11.470;2022-11-27T01:54:10;44.97;;;31.45;;
44750;SDS011;30477;48.224;11.470;2022-11-27T01:56:37;43.75;;;31.10;;
44750;SDS011;30477;48.224;11.470;2022-11-27T01:59:05;43.53;;;30.13;;
44750;SDS011;30477;48.224;11.470;2022-11-27T02:01:32;45.25;;;31.45;;
44750;SDS011;30477;48.224;11.470;2022-11-27T02:03:58;38.80;;;27.90;;
44750;SDS011;30477;48.224;11.470;2022-11-27T02:06:24;37.83;;;28.10;;
44750;SDS011;30477;48.224;11.470;2022-11-27T02:08:50;38.85;;;29.65;;
44750;SDS011;30477;48.224;11.470;2022-11-27T02:14:08;48.83;;;28.55;;
44750;SDS011;30477;48.224;11.470;2022-11-27T02:22:21;69.53;;;28.80;;
44750;SDS011;30477;48.224;11.470;2022-11-27T02:30:33;63.53;;;28.90;;
44750;SDS011;30477;48.224;11.470;2022-11-27T02:33:05;69.75;;;29.30;;
44750;SDS011;30477;48.224;11.470;2022-11-27T02:35:58;61.33;;;27.35;;
44750;SDS011;30477;48.224;11.470;2022-11-27T02:38:26;64.65;;;25.13;;
44750;SDS011;30477;48.224;11.470;2022-11-27T02:41:16;71.82;;;25.90;;
44750;SDS011;30477;48.224;11.470;2022-11-27T02:43:47;65.95;;;25.23;;
44750;SDS011;30477;48.224;11.470;2022-11-27T02:46:15;37.28;;;22.52;;
44750;SDS011;30477;48.224;11.470;2022-11-27T02:48:49;43.78;;;21.75;;
44750;SDS011;30477;48.224;11.470;2022-11-27T02:51:19;41.17;;;22.90;;
44750;SDS011;30477;48.224;11.470;2022-11-27T02:53:51;46.05;;;23.63;;
44750;SDS011;30477;48.224;11.470;2022-11-27T02:56:21;31.75;;;20.88;;
44750;SDS011;30477;48.224;11.470;2022-11-27T02:58:48;44.92;;;22.67;;
44750;SDS011;30477;48.224;11.470;2022-11-27T03:01:17;47.33;;;24.40;;
44750;SDS011;30477;48.224;11.470;2022-11-27T03:03:46;94.82;;;26.60;;
44750;SDS011;30477;48.224;11.470;2022-11-27T03:06:16;52.05;;;25.48;;
44750;SDS011;30477;48.224;11.470;2022-11-27T03:11:18;58.22;;;24.02;;
44750;SDS011;30477;48.224;11.470;2022-11-27T03:13:48;34.07;;;20.63;;
44750;SDS011;30477;48.224;11.470;2022-11-27T03:21:38;29.52;;;20.95;;
44750;SDS011;30477;48.224;11.470;2022-11-27T03:24:06;27.17;;;19.38;;
44750;SDS011;30477;48.224;11.470;2022-11-27T03:26:32;33.40;;;21.30;;
44750;SDS011;30477;48.224;11.470;2022-11-27T03:28:58;24.47;;;18.10;;
44750;SDS011;30477;48.224;11.470;2022-11-27T03:31:26;29.60;;;20.35;;
44750;SDS011;30477;48.224;11.470;2022-11-27T03:33:52;24.50;;;18.38;;
44750;SDS011;30477;48.224;11.470;2022-11-27T03:36:19;29.23;;;19.67;;
44750;SDS011;30477;48.224;11.470;2022-11-27T03:38:46;23.85;;;17.67;;
44750;SDS011;30477;48.224;11.470;2022-11-27T03:44:04;20.13;;;13.93;;
44750;SDS011;30477;48.224;11.470;2022-11-27T03:52:02;23.47;;;17.20;;
44750;SDS011;30477;48.224;11.470;2022-11-27T03:54:50;24.92;;;18.08;;
44750;SDS011;30477;48.224;11.470;2022-11-27T03:57:21;26.33;;;18.52;;
44750;SDS011;30477;48.224;11.470;2022-11-27T03:59:53;28.30;;;19.15;;
44750;SDS011;30477;48.224;11.470;2022-11-27T04:02:27;29.42;;;19.23;;
44750;SDS011;30477;48.224;11.470;2022-11-27T04:04:55;25.42;;;18.52;;
44750;SDS011;30477;48.224;11.470;2022-11-27T04:07:21;25.97;;;18.43;;
44750;SDS011;30477;48.224;11.470;2022-11-27T04:09:46;25.27;;;18.90;;
44750;SDS011;30477;48.224;11.470;2022-11-27T04:12:11;27.77;;;18.87;;
44750;SDS011;30477;48.224;11.470;2022-11-27T04:14:37;23.73;;;17.60;;
44750;SDS011;30477;48.224;11.470;2022-11-27T04:17:02;26.90;;;18.77;;
44750;SDS011;30477;48.224;11.470;2022-11-27T04:19:28;25.63;;;18.37;;
44750;SDS011;30477;48.224;11.470;2022-11-27T04:21:53;24.13;;;17.67;;
44750;SDS011;30477;48.224;11.470;2022-11-27T04:24:18;24.10;;;17.23;;
44750;SDS011;30477;48.224;11.470;2022-11-27T04:26:44;24.33;;;18.50;;
44750;SDS011;30477;48.224;11.470;2022-11-27T04:29:09;27.27;;;19.57;;
44750;SDS011;30477;48.224;11.470;2022-11-27T04:31:34;30.33;;;19.53;;
44750;SDS011;30477;48.224;11.470;2022-11-27T04:33:59;34.27;;;20.80;;
44750;SDS011;30477;48.224;11.470;2022-11-27T04:36:25;40.10;;;20.93;;
44750;SDS011;30477;48.224;11.470;2022-11-27T04:38:50;48.93;;;20.73;;
44750;SDS011;30477;48.224;11.470;2022-11-27T04:41:15;49.87;;;22.13;;
44750;SDS011;30477;48.224;11.470;2022-11-27T04:43:41;35.93;;;20.87;;
44750;SDS011;30477;48.224;11.470;2022-11-27T04:46:06;29.33;;;20.77;;
44750;SDS011;30477;48.224;11.470;2022-11-27T04:48:31;32.93;;;20.83;;
44750;SDS011;30477;48.224;11.470;2022-11-27T04:50:57;30.73;;;20.20;;
44750;SDS011;30477;48.224;11.470;2022-11-27T04:53:22;25.23;;;18.43;;
44750;SDS011;30477;48.224;11.470;2022-11-27T04:55:47;29.20;;;19.37;;
44750;SDS011;30477;48.224;11.470;2022-11-27T04:58:15;26.63;;;19.17;;
44750;SDS011;30477;48.224;11.470;2022-11-27T05:00:41;23.77;;;17.77;;
44750;SDS011;30477;48.224;11.470;2022-11-27T05:03:06;25.10;;;18.40;;
44750;SDS011;30477;48.224;11.470;2022-11-27T05:05:31;26.03;;;18.53;;
44750;SDS011;30477;48.224;11.470;2022-11-27T05:07:57;22.90;;;17.60;;
44750;SDS011;30477;48.224;11.470;2022-11-27T05:10:22;24.40;;;18.10;;
44750;SDS011;30477;48.224;11.470;2022-11-27T05:12:47;23.27;;;16.73;;
44750;SDS011;30477;48.224;11.470;2022-11-27T05:15:13;26.07;;;17.60;;
44750;SDS011;30477;48.224;11.470;2022-11-27T05:17:38;22.23;;;17.00;;
44750;SDS011;30477;48.224;11.470;2022-11-27T05:20:05;26.70;;;18.58;;
44750;SDS011;30477;48.224;11.470;2022-11-27T05:22:30;24.50;;;17.23;;
44750;SDS011;30477;48.224;11.470;2022-11-27T05:24:56;20.57;;;16.17;;
44750;SDS011;30477;48.224;11.470;2022-11-27T05:27:21;22.37;;;16.13;;
44750;SDS011;30477;48.224;11.470;2022-11-27T05:29:46;21.63;;;15.50;;
44750;SDS011;30477;48.224;11.470;2022-11-27T05:32:12;23.10;;;18.17;;
44750;SDS011;30477;48.224;11.470;2022-11-27T05:34:37;24.20;;;17.33;;
44750;SDS011;30477;48.224;11.470;2022-11-27T05:37:02;22.87;;;17.47;;
44750;SDS011;30477;48.224;11.470;2022-11-27T05:39:28;24.23;;;17.83;;
44750;SDS011;30477;48.224;11.470;2022-11-27T05:41:53;22.17;;;16.13;;
44750;SDS011;30477;48.224;11.470;2022-11-27T05:44:18;21.90;;;15.90;;
44750;SDS011;30477;48.224;11.470;2022-11-27T05:46:43;24.33;;;16.73;;
44750;SDS011;30477;48.224;11.470;2022-11-27T05:49:10;23.77;;;16.33;;
44750;SDS011;30477;48.224;11.470;2022-11-27T05:51:37;23.30;;;16.98;;
44750;SDS011;30477;48.224;11.470;2022-11-27T05:54:03;22.35;;;16.15;;
44750;SDS011;30477;48.224;11.470;2022-11-27T05:56:28;29.33;;;17.97;;
44750;SDS011;30477;48.224;11.470;2022-11-27T05:58:53;25.50;;;17.63;;
44750;SDS011;30477;48.224;11.470;2022-11-27T06:01:19;24.37;;;16.77;;
44750;SDS011;30477;48.224;11.470;2022-11-27T06:03:44;26.93;;;17.80;;
44750;SDS011;30477;48.224;11.470;2022-11-27T06:06:14;27.30;;;16.60;;
44750;SDS011;30477;48.224;11.470;2022-11-27T06:08:41;24.73;;;15.95;;
44750;SDS011;30477;48.224;11.470;2022-11-27T06:11:07;24.92;;;17.25;;
44750;SDS011;30477;48.224;11.470;2022-11-27T06:13:35;31.63;;;17.48;;
44750;SDS011;30477;48.224;11.470;2022-11-27T06:16:07;31.47;;;21.80;;
44750;SDS011;30477;48.224;11.470;2022-11-27T06:18:34;33.75;;;20.60;;
44750;SDS011;30477;48.224;11.470;2022-11-27T06:21:00;45.23;;;23.37;;
44750;SDS011;30477;48.224;11.470;2022-11-27T06:23:29;31.20;;;18.60;;
44750;SDS011;30477;48.224;11.470;2022-11-27T06:25:54;34.80;;;18.20;;
44750;SDS011;30477;48.224;11.470;2022-11-27T06:28:19;66.33;;;18.13;;
44750;SDS011;30477;48.224;11.470;2022-11-27T06:30:45;77.27;;;18.23;;
44750;SDS011;30477;48.224;11.470;2022-11-27T06:33:10;56.87;;;18.40;;
44750;SDS011;30477;48.224;11.470;2022-11-27T06:35:35;73.10;;;17.77;;
44750;SDS011;30477;48.224;11.470;2022-11-27T06:38:01;32.80;;;17.00;;
44750;SDS011;30477;48.224;11.470;2022-11-27T06:40:26;142.33;;;20.90;;
44750;SDS011;30477;48.224;11.470;2022-11-27T06:42:51;121.37;;;19.83;;
44750;SDS011;30477;48.224;11.470;2022-11-27T06:45:17;82.97;;;20.37;;
44750;SDS011;30477;48.224;11.470;2022-11-27T06:47:42;123.67;;;21.13;;
44750;SDS011;30477;48.224;11.470;2022-11-27T06:50:07;54.77;;;17.53;;
44750;SDS011;30477;48.224;11.470;2022-11-27T06:52:33;64.28;;;18.65;;
44750;SDS011;30477;48.224;11.470;2022-11-27T06:54:58;58.53;;;18.67;;
44750;SDS011;30477;48.224;11.470;2022-11-27T06:57:23;27.73;;;17.07;;
44750;SDS011;30477;48.224;11.470;2022-11-27T06:59:49;34.85;;;18.77;;
44750;SDS011;30477;48.224;11.470;2022-11-27T07:02:14;27.03;;;16.83;;
44750;SDS011;30477;48.224;11.470;2022-11-27T07:04:40;35.90;;;16.93;;
44750;SDS011;30477;48.224;11.470;2022-11-27T07:07:05;31.30;;;17.98;;
44750;SDS011;30477;48.224;11.470;2022-11-27T07:09:31;26.83;;;17.77;;
44750;SDS011;30477;48.224;11.470;2022-11-27T07:11:56;29.20;;;17.47;;
44750;SDS011;30477;48.224;11.470;2022-11-27T07:14:21;26.30;;;16.97;;
44750;SDS011;30477;48.224;11.470;2022-11-27T07:16:47;32.87;;;21.13;;
44750;SDS011;30477;48.224;11.470;2022-11-27T07:19:12;31.60;;;19.97;;
44750;SDS011;30477;48.224;11.470;2022-11-27T07:24:04;23.38;;;15.32;;
44750;SDS011;30477;48.224;11.470;2022-11-27T07:26:29;23.83;;;15.95;;
44750;SDS011;30477;48.224;11.470;2022-11-27T07:28:55;25.67;;;16.47;;
44750;SDS011;30477;48.224;11.470;2022-11-27T07:31:22;23.33;;;16.58;;
44750;SDS011;30477;48.224;11.470;2022-11-27T07:33:50;23.15;;;15.65;;
44750;SDS011;30477;48.224;11.470;2022-11-27T07:36:20;23.30;;;15.65;;
44750;SDS011;30477;48.224;11.470;2022-11-27T07:38:47;21.70;;;15.65;;
44750;SDS011;30477;48.224;11.470;2022-11-27T07:41:13;22.30;;;15.70;;
44750;SDS011;30477;48.224;11.470;2022-11-27T07:43:39;21.45;;;14.57;;
44750;SDS011;30477;48.224;11.470;2022-11-27T07:46:06;19.70;;;13.60;;
44750;SDS011;30477;48.224;11.470;2022-11-27T07:48:37;18.88;;;13.05;;
44750;SDS011;30477;48.224;11.470;2022-11-27T07:51:06;17.03;;;12.03;;
44750;SDS011;30477;48.224;11.470;2022-11-27T07:53:37;17.35;;;12.25;;
44750;SDS011;30477;48.224;11.470;2022-11-27T07:56:04;18.05;;;12.57;;
44750;SDS011;30477;48.224;11.470;2022-11-27T07:58:30;20.15;;;13.45;;
44750;SDS011;30477;48.224;11.470;2022-11-27T08:00:56;18.40;;;12.55;;
44750;SDS011;30477;48.224;11.470;2022-11-27T08:03:21;18.67;;;13.17;;
44750;SDS011;30477;48.224;11.470;2022-11-27T08:08:13;15.90;;;11.20;;
44750;SDS011;30477;48.224;11.470;2022-11-27T08:10:38;17.87;;;12.00;;
44750;SDS011;30477;48.224;11.470;2022-11-27T08:13:05;17.17;;;12.70;;
44750;SDS011;30477;48.224;11.470;2022-11-27T08:15:30;16.35;;;12.50;;
44750;SDS011;30477;48.224;11.470;2022-11-27T08:17:56;18.10;;;12.95;;
44750;SDS011;30477;48.224;11.470;2022-11-27T08:20:22;16.92;;;12.13;;
44750;SDS011;30477;48.224;11.470;2022-11-27T08:22:47;17.27;;;12.45;;
44750;SDS011;30477;48.224;11.470;2022-11-27T08:25:13;18.15;;;12.98;;
44750;SDS011;30477;48.224;11.470;2022-11-27T08:27:39;19.87;;;12.97;;
44750;SDS011;30477;48.224;11.470;2022-11-27T08:30:04;19.57;;;13.47;;
44750;SDS011;30477;48.224;11.470;2022-11-27T08:32:31;17.23;;;13.15;;
44750;SDS011;30477;48.224;11.470;2022-11-27T08:34:57;19.25;;;13.75;;
44750;SDS011;30477;48.224;11.470;2022-11-27T08:37:22;18.60;;;13.53;;
44750;SDS011;30477;48.224;11.470;2022-11-27T08:39:47;14.70;;;11.30;;
44750;SDS011;30477;48.224;11.470;2022-11-27T08:42:13;16.83;;;12.60;;
44750;SDS011;30477;48.224;11.470;2022-11-27T08:44:38;16.40;;;11.68;;
44750;SDS011;30477;48.224;11.470;2022-11-27T08:47:04;17.10;;;12.70;;
44750;SDS011;30477;48.224;11.470;2022-11-27T08:49:29;17.50;;;12.57;;
44750;SDS011;30477;48.224;11.470;2022-11-27T08:51:54;16.40;;;11.90;;
44750;SDS011;30477;48.224;11.470;2022-11-27T08:54:20;15.03;;;11.40;;
44750;SDS011;30477;48.224;11.470;2022-11-27T08:56:45;18.90;;;12.60;;
44750;SDS011;30477;48.224;11.470;2022-11-27T08:59:10;17.13;;;12.03;;
44750;SDS011;30477;48.224;11.470;2022-11-27T09:01:36;18.47;;;12.93;;
44750;SDS011;30477;48.224;11.470;2022-11-27T09:04:01;16.50;;;11.60;;
44750;SDS011;30477;48.224;11.470;2022-11-27T09:06:28;15.20;;;12.17;;
44750;SDS011;30477;48.224;11.470;2022-11-27T09:08:55;15.52;;;11.75;;
44750;SDS011;30477;48.224;11.470;2022-11-27T09:11:21;17.40;;;12.20;;
44750;SDS011;30477;48.224;11.470;2022-11-27T09:13:47;16.13;;;12.10;;
44750;SDS011;30477;48.224;11.470;2022-11-27T09:16:13;18.80;;;12.40;;
44750;SDS011;30477;48.224;11.470;2022-11-27T09:18:42;17.40;;;12.13;;
44750;SDS011;30477;48.224;11.470;2022-11-27T09:21:09;18.98;;;12.75;;
44750;SDS011;30477;48.224;11.470;2022-11-27T09:23:36;15.60;;;12.07;;
44750;SDS011;30477;48.224;11.470;2022-11-27T09:26:02;16.57;;;11.57;;
44750;SDS011;30477;48.224;11.470;2022-11-27T09:28:30;19.02;;;13.32;;
44750;SDS011;30477;48.224;11.470;2022-11-27T09:30:57;19.75;;;13.57;;
44750;SDS011;30477;48.224;11.470;2022-11-27T09:33:24;15.98;;;11.90;;
44750;SDS011;30477;48.224;11.470;2022-11-27T09:35:50;16.60;;;11.80;;
44750;SDS011;30477;48.224;11.470;2022-11-27T09:38:16;22.40;;;12.45;;
44750;SDS011;30477;48.224;11.470;2022-11-27T09:40:43;18.23;;;12.37;;
44750;SDS011;30477;48.224;11.470;2022-11-27T09:43:12;17.15;;;11.48;;
44750;SDS011;30477;48.224;11.470;2022-11-27T09:45:38;17.73;;;11.43;;
44750;SDS011;30477;48.224;11.470;2022-11-27T09:48:17;16.27;;;11.90;;
44750;SDS011;30477;48.224;11.470;2022-11-27T09:50:48;21.17;;;11.95;;
44750;SDS011;30477;48.224;11.470;2022-11-27T09:55:51;24.52;;;11.80;;
44750;SDS011;30477;48.224;11.470;2022-11-27T09:58:28;35.30;;;11.60;;
44750;SDS011;30477;48.224;11.470;2022-11-27T10:00:59;19.15;;;12.52;;
44750;SDS011;30477;48.224;11.470;2022-11-27T10:03:25;22.00;;;13.30;;
44750;SDS011;30477;48.224;11.470;2022-11-27T10:11:21;21.65;;;11.38;;
44750;SDS011;30477;48.224;11.470;2022-11-27T10:13:54;16.90;;;12.43;;
44750;SDS011;30477;48.224;11.470;2022-11-27T10:16:43;19.48;;;13.15;;
44750;SDS011;30477;48.224;11.470;2022-11-27T10:19:19;19.05;;;13.32;;
44750;SDS011;30477;48.224;11.470;2022-11-27T10:22:03;17.77;;;12.85;;
44750;SDS011;30477;48.224;11.470;2022-11-27T10:27:37;15.48;;;12.50;;
44750;SDS011;30477;48.224;11.470;2022-11-27T10:30:14;16.45;;;12.43;;
44750;SDS011;30477;48.224;11.470;2022-11-27T10:32:41;30.05;;;13.38;;
44750;SDS011;30477;48.224;11.470;2022-11-27T10:35:12;29.13;;;13.82;;
44750;SDS011;30477;48.224;11.470;2022-11-27T10:37:42;45.85;;;13.63;;
44750;SDS011;30477;48.224;11.470;2022-11-27T10:42:47;41.77;;;12.80;;
44750;SDS011;30477;48.224;11.470;2022-11-27T10:45:43;20.52;;;12.13;;
44750;SDS011;30477;48.224;11.470;2022-11-27T10:48:11;29.15;;;11.35;;
44750;SDS011;30477;48.224;11.470;2022-11-27T10:50:37;29.48;;;12.85;;
44750;SDS011;30477;48.224;11.470;2022-11-27T10:53:07;32.58;;;11.60;;
44750;SDS011;30477;48.224;11.470;2022-11-27T11:01:08;19.60;;;11.90;;
44750;SDS011;30477;48.224;11.470;2022-11-27T11:03:35;14.80;;;11.13;;
44750;SDS011;30477;48.224;11.470;2022-11-27T11:06:02;20.23;;;9.97;;
44750;SDS011;30477;48.224;11.470;2022-11-27T11:08:30;24.15;;;10.98;;
44750;SDS011;30477;48.224;11.470;2022-11-27T11:10:59;21.83;;;10.98;;
44750;SDS011;30477;48.224;11.470;2022-11-27T11:16:05;13.40;;;9.70;;
44750;SDS011;30477;48.224;11.470;2022-11-27T11:18:43;14.30;;;9.50;;
44750;SDS011;30477;48.224;11.470;2022-11-27T11:21:14;12.80;;;9.23;;
44750;SDS011;30477;48.224;11.470;2022-11-27T11:23:43;23.00;;;9.30;;
44750;SDS011;30477;48.224;11.470;2022-11-27T11:28:47;13.65;;;8.70;;
44750;SDS011;30477;48.224;11.470;2022-11-27T11:31:15;16.13;;;8.75;;
44750;SDS011;30477;48.224;11.470;2022-11-27T11:33:48;14.95;;;8.82;;
44750;SDS011;30477;48.224;11.470;2022-11-27T11:36:17;16.33;;;9.57;;
44750;SDS011;30477;48.224;11.470;2022-11-27T11:38:43;15.45;;;8.80;;
44750;SDS011;30477;48.224;11.470;2022-11-27T11:41:10;19.02;;;9.30;;
44750;SDS011;30477;48.224;11.470;2022-11-27T11:43:38;15.88;;;9.70;;
44750;SDS011;30477;48.224;11.470;2022-11-27T11:46:13;20.40;;;8.75;;
44750;SDS011;30477;48.224;11.470;2022-11-27T11:48:51;15.70;;;8.98;;
44750;SDS011;30477;48.224;11.470;2022-11-27T11:52:18;13.15;;;9.23;;
44750;SDS011;30477;48.224;11.470;2022-11-27T11:54:23;10.40;;;8.07;;
44750;SDS011;30477;48.224;11.470;2022-11-27T11:57:58;11.43;;;8.95;;
44750;SDS011;30477;48.224;11.470;2022-11-27T12:00:21;13.20;;;9.38;;
44750;SDS011;30477;48.224;11.470;2022-11-27T12:08:05;14.27;;;9.63;;
44750;SDS011;30477;48.224;11.470;2022-11-27T12:13:28;17.30;;;9.80;;
44750;SDS011;30477;48.224;11.470;2022-11-27T12:27:13;19.30;;;9.82;;
44750;SDS011;30477;48.224;11.470;2022-11-27T12:30:11;20.05;;;10.25;;
44750;SDS011;30477;48.224;11.470;2022-11-27T12:35:29;20.83;;;9.70;;
44750;SDS011;30477;48.224;11.470;2022-11-27T12:40:55;19.27;;;11.07;;
44750;SDS011;30477;48.224;11.470;2022-11-27T12:43:26;15.82;;;10.13;;
44750;SDS011;30477;48.224;11.470;2022-11-27T12:48:23;17.77;;;10.60;;
44750;SDS011;30477;48.224;11.470;2022-11-27T12:50:54;23.40;;;11.20;;
44750;SDS011;30477;48.224;11.470;2022-11-27T12:53:35;14.07;;;10.02;;
44750;SDS011;30477;48.224;11.470;2022-11-27T12:58:55;22.88;;;11.30;;
44750;SDS011;30477;48.224;11.470;2022-11-27T13:01:27;16.83;;;10.93;;
44750;SDS011;30477;48.224;11.470;2022-11-27T13:04:08;18.73;;;10.15;;
44750;SDS011;30477;48.224;11.470;2022-11-27T13:09:44;36.97;;;10.60;;
44750;SDS011;30477;48.224;11.470;2022-11-27T13:13:02;68.70;;;12.15;;
44750;SDS011;30477;48.224;11.470;2022-11-27T13:15:12;27.48;;;11.77;;
44750;SDS011;30477;48.224;11.470;2022-11-27T13:17:45;66.80;;;12.77;;
44750;SDS011;30477;48.224;11.470;2022-11-27T13:20:19;34.65;;;11.80;;
44750;SDS011;30477;48.224;11.470;2022-11-27T13:22:53;54.05;;;11.93;;
44750;SDS011;30477;48.224;11.470;2022-11-27T13:25:19;46.47;;;11.97;;
44750;SDS011;30477;48.224;11.470;2022-11-27T13:27:46;45.65;;;12.07;;
44750;SDS011;30477;48.224;11.470;2022-11-27T13:30:33;30.42;;;11.73;;
44750;SDS011;30477;48.224;11.470;2022-11-27T13:33:01;27.98;;;12.10;;
44750;SDS011;30477;48.224;11.470;2022-11-27T13:35:35;37.40;;;12.93;;
44750;SDS011;30477;48.224;11.470;2022-11-27T13:40:48;20.95;;;11.85;;
44750;SDS011;30477;48.224;11.470;2022-11-27T13:48:37;36.20;;;12.90;;
44750;SDS011;30477;48.224;11.470;2022-11-27T13:51:08;24.20;;;12.30;;
44750;SDS011;30477;48.224;11.470;2022-11-27T13:53:36;27.13;;;12.90;;
44750;SDS011;30477;48.224;11.470;2022-11-27T13:56:04;23.55;;;11.60;;
44750;SDS011;30477;48.224;11.470;2022-11-27T13:58:32;29.52;;;11.93;;
44750;SDS011;30477;48.224;11.470;2022-11-27T14:01:09;21.92;;;11.93;;
44750;SDS011;30477;48.224;11.470;2022-11-27T14:03:46;25.10;;;13.07;;
44750;SDS011;30477;48.224;11.470;2022-11-27T14:08:53;42.13;;;13.15;;
44750;SDS011;30477;48.224;11.470;2022-11-27T14:14:12;41.83;;;15.30;;
44750;SDS011;30477;48.224;11.470;2022-11-27T14:16:49;29.45;;;13.60;;
44750;SDS011;30477;48.224;11.470;2022-11-27T14:19:33;34.33;;;13.32;;
44750;SDS011;30477;48.224;11.470;2022-11-27T14:22:14;20.90;;;12.95;;
44750;SDS011;30477;48.224;11.470;2022-11-27T14:24:40;25.80;;;14.85;;
44750;SDS011;30477;48.224;11.470;2022-11-27T14:27:21;28.25;;;14.82;;
44750;SDS011;30477;48.224;11.470;2022-11-27T14:29:48;34.28;;;14.48;;
44750;SDS011;30477;48.224;11.470;2022-11-27T14:32:15;67.70;;;15.70;;
44750;SDS011;30477;48.224;11.470;2022-11-27T14:34:41;37.35;;;15.65;;
44750;SDS011;30477;48.224;11.470;2022-11-27T14:37:18;45.93;;;15.40;;
44750;SDS011;30477;48.224;11.470;2022-11-27T14:39:48;43.50;;;15.82;;
44750;SDS011;30477;48.224;11.470;2022-11-27T14:42:23;48.50;;;16.67;;
44750;SDS011;30477;48.224;11.470;2022-11-27T14:45:13;39.58;;;16.02;;
44750;SDS011;30477;48.224;11.470;2022-11-27T14:47:39;46.85;;;15.98;;
44750;SDS011;30477;48.224;11.470;2022-11-27T14:50:10;82.60;;;16.67;;
44750;SDS011;30477;48.224;11.470;2022-11-27T14:52:38;58.60;;;17.58;;
44750;SDS011;30477;48.224;11.470;2022-11-27T14:55:07;43.65;;;18.00;;
44750;SDS011;30477;48.224;11.470;2022-11-27T14:57:38;49.70;;;18.30;;
44750;SDS011;30477;48.224;11.470;2022-11-27T15:02:51;55.08;;;16.55;;
44750;SDS011;30477;48.224;11.470;2022-11-27T15:05:18;43.60;;;16.02;;
44750;SDS011;30477;48.224;11.470;2022-11-27T15:07:47;67.45;;;16.80;;
44750;SDS011;30477;48.224;11.470;2022-11-27T15:10:16;46.88;;;17.27;;
44750;SDS011;30477;48.224;11.470;2022-11-27T15:12:46;43.20;;;16.83;;
44750;SDS011;30477;48.224;11.470;2022-11-27T15:17:42;70.88;;;18.55;;
44750;SDS011;30477;48.224;11.470;2022-11-27T15:20:54;41.88;;;17.67;;
44750;SDS011;30477;48.224;11.470;2022-11-27T15:23:28;47.15;;;16.85;;
44750;SDS011;30477;48.224;11.470;2022-11-27T15:28:25;36.55;;;17.38;;
44750;SDS011;30477;48.224;11.470;2022-11-27T15:30:52;36.35;;;17.48;;
44750;SDS011;30477;48.224;11.470;2022-11-27T15:33:23;34.47;;;17.52;;
44750;SDS011;30477;48.224;11.470;2022-11-27T15:35:50;35.00;;;18.02;;
44750;SDS011;30477;48.224;11.470;2022-11-27T15:38:16;30.25;;;17.65;;
44750;SDS011;30477;48.224;11.470;2022-11-27T15:40:42;33.88;;;19.23;;
44750;SDS011;30477;48.224;11.470;2022-11-27T15:43:09;34.07;;;19.50;;
44750;SDS011;30477;48.224;11.470;2022-11-27T15:45:36;31.00;;;17.35;;
44750;SDS011;30477;48.224;11.470;2022-11-27T15:48:01;34.10;;;17.67;;
44750;SDS011;30477;48.224;11.470;2022-11-27T15:50:27;30.47;;;16.97;;
44750;SDS011;30477;48.224;11.470;2022-11-27T15:52:53;30.92;;;16.35;;
44750;SDS011;30477;48.224;11.470;2022-11-27T15:55:19;30.97;;;18.13;;
44750;SDS011;30477;48.224;11.470;2022-11-27T15:57:45;29.02;;;17.20;;
44750;SDS011;30477;48.224;11.470;2022-11-27T16:00:10;32.50;;;17.57;;
44750;SDS011;30477;48.224;11.470;2022-11-27T16:02:37;30.63;;;17.95;;
44750;SDS011;30477;48.224;11.470;2022-11-27T16:05:03;29.70;;;17.83;;
44750;SDS011;30477;48.224;11.470;2022-11-27T16:07:30;31.27;;;17.40;;
44750;SDS011;30477;48.224;11.470;2022-11-27T16:09:55;32.17;;;19.87;;
44750;SDS011;30477;48.224;11.470;2022-11-27T16:12:21;29.17;;;17.17;;
44750;SDS011;30477;48.224;11.470;2022-11-27T16:14:46;29.37;;;17.73;;
44750;SDS011;30477;48.224;11.470;2022-11-27T16:17:11;30.90;;;18.13;;